Data for 07/30/2013

Time Sea-Level Adjusted Pressure Absolute Pressure Temperature Relative Humidity Dew Point   
(mb) (inHg) (mb) (inHg) (C) (F) (%) (C) (F)
00:05 1020 30.12 849 25.07 16.3 61.3 62 9.1 48.4
00:10 1020 30.12 849 25.07 16.3 61.3 62 9.1 48.3
00:15 1020 30.12 849 25.07 16.3 61.3 62 9.1 48.3
00:20 1020 30.12 849 25.07 16.2 61.2 62 9 48.3
00:25 1020 30.12 849 25.07 16.2 61.2 62 9.1 48.3
00:30 1020 30.12 849 25.07 16.1 61 63 9.1 48.3
00:35 1020 30.12 849 25.07 16.1 60.9 63 9 48.2
00:40 1020 30.12 849 25.07 16 60.8 63 9 48.3
00:45 1020 30.12 849 25.07 16 60.7 63 8.9 48.1
00:50 1020 30.12 849 25.07 15.9 60.6 63 9 48.2
00:55 1020 30.12 849 25.07 15.8 60.5 64 9 48.3
01:00 1020 30.12 850 25.1 15.8 60.5 64 9 48.2
01:05 1020 30.12 850 25.1 15.7 60.3 64 9 48.2
01:10 1020 30.12 850 25.1 15.7 60.2 64 8.9 48.1
01:15 1020 30.12 850 25.1 15.7 60.2 64 9 48.2
01:20 1020 30.12 850 25.1 15.6 60 64 9 48.1
01:25 1020 30.12 850 25.1 15.5 59.9 64 8.8 47.9
01:30 1021 30.15 850 25.1 15.5 59.9 65 9 48.1
01:35 1021 30.15 850 25.1 15.4 59.7 65 8.9 48
01:40 1021 30.15 850 25.1 15.3 59.5 66 8.9 48.1
01:45 1021 30.15 850 25.1 15.1 59.2 66 8.9 48
01:50 1021 30.15 850 25.1 14.9 58.9 66 8.8 47.8
01:55 1021 30.15 850 25.1 14.9 58.7 67 8.8 47.9
02:00 1021 30.15 850 25.1 14.7 58.4 68 8.8 47.9
02:05 1021 30.15 850 25.1 14.5 58.1 68 8.8 47.8
02:10 1021 30.15 850 25.1 14.4 57.9 68 8.7 47.7
02:15 1021 30.15 850 25.1 14.3 57.7 69 8.7 47.6
02:20 1021 30.15 850 25.1 14.3 57.7 70 8.9 48
02:25 1021 30.15 850 25.1 14.3 57.7 70 8.9 48
02:30 1021 30.15 850 25.1 14.2 57.5 70 8.9 47.9
02:35 1021 30.15 850 25.1 14 57.2 71 8.8 47.9
02:40 1021 30.15 850 25.1 13.8 56.8 71 8.7 47.7
02:45 1021 30.15 850 25.1 13.8 56.9 71 8.7 47.6
02:50 1021 30.15 850 25.1 13.8 56.8 71 8.7 47.6
02:55 1021 30.15 850 25.1 13.6 56.4 70 8.3 47
03:00 1021 30.15 850 25.1 13.5 56.2 70 8.1 46.6
03:05 1021 30.15 851 25.13 13.3 55.9 72 8.5 47.2
03:10 1021 30.15 851 25.13 13.2 55.8 72 8.3 47
03:15 1021 30.15 851 25.13 13.2 55.8 71 8 46.4
03:20 1021 30.15 850 25.1 13.1 55.7 70 7.9 46.2
03:25 1021 30.15 850 25.1 13 55.4 70 7.7 45.9
03:30 1021 30.15 850 25.1 12.9 55.1 71 7.7 45.8
03:35 1021 30.15 850 25.1 12.6 54.7 71 7.6 45.7
03:40 1021 30.15 850 25.1 12.5 54.4 72 7.6 45.6
03:45 1021 30.15 851 25.13 12.4 54.3 72 7.4 45.4
03:50 1021 30.15 851 25.13 12.4 54.2 71 7.3 45.2
03:55 1022 30.18 851 25.13 12.3 54.1 71 7.3 45.1
04:00 1022 30.18 851 25.13 12.4 54.3 71 7.3 45.1
04:05 1022 30.18 851 25.13 12.6 54.6 70 7.3 45.1
04:10 1022 30.18 851 25.13 12.7 54.8 69 7.2 45
04:15 1022 30.18 851 25.13 12.7 54.8 69 7.3 45.1
04:20 1022 30.18 851 25.13 12.5 54.5 70 7.2 45
04:25 1022 30.18 851 25.13 12.2 53.9 71 7.1 44.8
04:30 1022 30.18 851 25.13 11.9 53.3 72 7.1 44.8
04:35 1022 30.18 851 25.13 11.6 53 73 7 44.6
04:40 1022 30.18 851 25.13 11.6 52.9 73 6.9 44.5
04:45 1022 30.18 851 25.13 11.5 52.7 74 7 44.5
04:50 1022 30.18 851 25.13 11.4 52.6 74 6.9 44.5
04:55 1022 30.18 851 25.13 11.4 52.6 74 7 44.7
05:00 1022 30.18 852 25.16 11.5 52.7 73 6.8 44.3
05:05 1022 30.18 852 25.16 11.7 53.1 72 6.8 44.3
05:10 1022 30.18 852 25.16 11.7 53.1 72 6.9 44.5
05:15 1022 30.18 852 25.16 11.6 52.8 73 7 44.6
05:20 1023 30.21 852 25.16 11.5 52.7 74 7 44.7
05:25 1023 30.21 852 25.16 11.4 52.6 73 6.8 44.2
05:30 1023 30.21 852 25.16 11.4 52.5 73 6.8 44.2
05:35 1023 30.21 852 25.16 11.3 52.3 74 6.7 44.1
05:40 1023 30.21 852 25.16 11.3 52.3 74 6.8 44.2
05:45 1023 30.21 852 25.16 11.5 52.7 72 6.6 44
05:50 1023 30.21 852 25.16 11.7 53 71 6.7 44.1
05:55 1023 30.21 852 25.16 11.8 53.3 71 6.7 44.1
06:00 1023 30.21 852 25.16 12 53.6 71 6.9 44.3
06:05 1023 30.21 852 25.16 12.1 53.8 70 6.9 44.4
06:10 1023 30.21 852 25.16 12.2 53.9 70 6.9 44.3
06:15 1023 30.21 852 25.16 12.4 54.2 69 6.9 44.5
06:20 1023 30.21 853 25.19 12.6 54.6 69 7.1 44.8
06:25 1023 30.21 853 25.19 12.8 55 69 7.3 45.1
06:30 1024 30.24 853 25.19 12.9 55.1 69 7.4 45.3
06:35 1023 30.21 853 25.19 12.9 55.1 67 7 44.6
06:40 1024 30.24 853 25.19 12.9 55.1 65 6.5 43.7
06:45 1024 30.24 853 25.19 13.1 55.7 65 6.7 44
06:50 1024 30.24 853 25.19 13.3 56 64 6.8 44.2
06:55 1024 30.24 853 25.19 13.4 56 65 7 44.6
07:00 1024 30.24 853 25.19 13.5 56.3 65 7.1 44.9
07:05 1024 30.24 853 25.19 13.8 56.9 64 7.1 44.8
07:10 1024 30.24 853 25.19 14.7 58.4 62 7.6 45.7
07:15 1024 30.24 853 25.19 15.2 59.4 63 8.4 47.1
07:20 1024 30.24 853 25.19 15.2 59.3 64 8.5 47.3
07:25 1024 30.24 853 25.19 15.3 59.6 64 8.7 47.6
07:30 1024 30.24 853 25.19 15 59 66 8.8 47.8
07:35 1024 30.24 854 25.22 15.3 59.5 66 8.9 48.1
07:40 1024 30.24 854 25.22 15.4 59.8 66 9.2 48.6
07:45 1024 30.24 854 25.22 15.2 59.4 66 9 48.3
07:50 1024 30.24 854 25.22 15.5 59.8 65 9 48.3
07:55 1024 30.24 854 25.22 15.6 60.2 65 9.2 48.6
08:00 1024 30.24 854 25.22 15.9 60.6 64 9.1 48.4
08:05 1024 30.24 853 25.19 15.8 60.4 67 9.6 49.3
08:10 1024 30.24 853 25.19 15.2 59.3 66 9 48.3
08:15 1024 30.24 853 25.19 15.7 60.3 64 9 48.2
08:20 1024 30.24 853 25.19 16.6 61.9 60 9 48.1
08:25 1024 30.24 853 25.19 17.4 63.4 57 8.9 48.1
08:30 1024 30.24 853 25.19 17.8 64 57 9.3 48.7
08:35 1024 30.24 853 25.19 17.3 63.1 59 9.2 48.6
08:40 1024 30.24 853 25.19 17.8 64 56 8.9 48
08:45 1024 30.24 853 25.19 17.4 63.4 57 9 48.2
08:50 1024 30.24 853 25.19 17.4 63.4 57 8.9 48
08:55 1024 30.24 853 25.19 18.1 64.6 57 9.6 49.2
09:00 1024 30.24 853 25.19 18.3 65 55 9.3 48.8
09:05 1024 30.24 853 25.19 18.3 64.9 54 8.8 47.9
09:10 1024 30.24 853 25.19 19 66.1 52 8.9 48
09:15 1023 30.21 853 25.19 19.1 66.4 51 9 48.2
09:20 1023 30.21 853 25.19 19.2 66.6 53 9.4 49
09:25 1023 30.21 853 25.19 19.2 66.6 52 9.2 48.6
09:30 1023 30.21 853 25.19 19.9 67.7 49 8.9 48
09:35 1023 30.21 853 25.19 19.9 67.9 50 9.3 48.7
09:40 1023 30.21 853 25.19 19.6 67.3 49 8.8 47.8
09:45 1023 30.21 853 25.19 19.6 67.3 50 9 48.3
09:50 1023 30.21 852 25.16 19.1 66.4 52 9.1 48.4
09:55 1023 30.21 852 25.16 19.1 66.5 52 9.2 48.5
10:00 1023 30.21 852 25.16 19.6 67.2 50 9.1 48.4
10:05 1024 30.24 853 25.19 19.7 67.4 50 9.1 48.4
10:10 1024 30.24 853 25.19 20.4 68.8 46 8.7 47.6
10:15 1024 30.24 853 25.19 20.8 69.5 46 9.1 48.3
10:20 1024 30.24 853 25.19 20.8 69.5 46 9 48.1
10:25 1023 30.21 853 25.19 20.7 69.3 46 8.7 47.7
10:30 1023 30.21 852 25.16 20.3 68.6 47 8.7 47.6
10:35 1023 30.21 852 25.16 20.3 68.6 47 8.7 47.7
10:40 1023 30.21 853 25.19 20.2 68.4 49 9.4 49
10:45 1024 30.24 853 25.19 20 68.1 50 9.4 49
10:50 1023 30.21 853 25.19 19.8 67.6 53 10 50
10:55 1023 30.21 852 25.16 19.3 66.7 53 9.5 49.1
11:00 1023 30.21 852 25.16 19.2 66.5 54 9.8 49.6
11:05 1024 30.24 853 25.19 19.6 67.3 53 9.9 49.9
11:10 1024 30.24 853 25.19 19.7 67.5 52 9.7 49.4
11:15 1024 30.24 853 25.19 19.8 67.6 53 9.9 49.9
11:20 1023 30.21 853 25.19 19.6 67.3 52 9.6 49.2
11:25 1023 30.21 853 25.19 19.4 67 53 9.6 49.3
11:30 1023 30.21 853 25.19 19.8 67.7 52 9.9 49.8
11:35 1024 30.24 853 25.19 20.4 68.6 50 9.9 49.8
11:40 1024 30.24 853 25.19 20.7 69.2 47 9.2 48.6
11:45 1024 30.24 853 25.19 21.2 70.2 46 9.4 49
11:50 1024 30.24 853 25.19 21.7 71 45 9.6 49.2
11:55 1024 30.24 853 25.19 22.3 72.2 41 8.7 47.7
12:00 1024 30.24 853 25.19 22 71.7 40 8 46.4
12:05 1023 30.21 853 25.19 22.6 72.6 34 6.2 43.2
12:10 1023 30.21 853 25.19 23.1 73.6 35 7 44.7
12:15 1024 30.24 853 25.19 23.2 73.8 35 7.3 45.1
12:20 1024 30.24 853 25.19 23.3 73.9 34 6.8 44.2
12:25 1023 30.21 853 25.19 23.4 74.1 35 7.2 44.9
12:30 1023 30.21 853 25.19 23 73.4 36 7.4 45.4
12:35 1023 30.21 852 25.16 23.3 73.9 34 6.7 44.1
12:40 1023 30.21 852 25.16 24 75.1 34 7.5 45.4
12:45 1023 30.21 852 25.16 23.8 74.9 32 6.3 43.4
12:50 1023 30.21 852 25.16 24.3 75.7 29 5.4 41.7
12:55 1023 30.21 852 25.16 24 75.2 30 5.8 42.4
13:00 1023 30.21 852 25.16 24 75.2 30 5.4 41.7
13:05 1023 30.21 852 25.16 23.6 74.4 29 4.7 40.4
13:10 1023 30.21 852 25.16 23.9 75 28 4.3 39.8
13:15 1023 30.21 852 25.16 23.9 75.1 27 4.1 39.5
13:20 1023 30.21 852 25.16 24.7 76.4 24 3 37.4
13:25 1023 30.21 852 25.16 25.1 77.2 23 2.6 36.6
13:30 1022 30.18 852 25.16 25.8 78.5 22 2.6 36.7
13:35 1022 30.18 852 25.16 25.3 77.6 19 0.5 32.9
13:40 1022 30.18 852 25.16 24.9 76.8 24 3.3 37.9
13:45 1022 30.18 852 25.16 25 76.9 22 1.8 35.2
13:50 1022 30.18 852 25.16 25.7 78.2 21 2.1 35.7
13:55 1022 30.18 852 25.16 25.3 77.6 23 3 37.3
14:00 1022 30.18 851 25.13 25.4 77.7 21 1.5 34.7
14:05 1022 30.18 851 25.13 25.5 77.8 21 1.7 35.1
14:10 1022 30.18 851 25.13 25.2 77.3 21 1.8 35.3
14:15 1022 30.18 851 25.13 25 77.1 20 0.7 33.2
14:20 1022 30.18 851 25.13 24.9 76.8 22 1.7 35.1
14:25 1022 30.18 851 25.13 25.1 77.2 21 1.7 35.1
14:30 1022 30.18 851 25.13 25.9 78.6 20 1.5 34.7
14:35 1022 30.18 851 25.13 25.9 78.7 20 1.5 34.8
14:40 1022 30.18 851 25.13 26.1 79 21 2.5 36.5
14:45 1022 30.18 851 25.13 26.7 80 20 2.1 35.7
14:50 1022 30.18 851 25.13 27 80.6 20 2.7 36.8
14:55 1022 30.18 851 25.13 26.7 80 20 2 35.6
15:00 1022 30.18 851 25.13 26.5 79.6 19 1.4 34.5
15:05 1022 30.18 851 25.13 26.7 80 20 1.8 35.3
15:10 1022 30.18 851 25.13 25.9 78.7 20 1.4 34.5
15:15 1022 30.18 851 25.13 25.7 78.2 20 1 33.9
15:20 1022 30.18 851 25.13 26.4 79.5 19 1.3 34.4
15:25 1022 30.18 851 25.13 26.3 79.3 19 1.2 34.2
15:30 1022 30.18 851 25.13 26.9 80.5 17 0.2 32.4
15:35 1022 30.18 852 25.16 26.2 79.1 19 0.8 33.4
15:40 1022 30.18 852 25.16 26.3 79.3 18 0.4 32.7
15:45 1023 30.21 852 25.16 26.5 79.6 18 0.6 33.2
15:50 1023 30.21 852 25.16 26.7 80 18 0.3 32.6
15:55 1022 30.18 852 25.16 26.2 79.2 19 0.9 33.5
16:00 1022 30.18 852 25.16 25.9 78.5 19 1.1 33.9
16:05 1022 30.18 852 25.16 25.1 77.2 20 0.9 33.6
16:10 1022 30.18 852 25.16 25 77.1 21 1.4 34.4
16:15 1022 30.18 852 25.16 24.9 76.8 21 1.4 34.5
16:20 1022 30.18 852 25.16 24.8 76.6 24 3.1 37.6
16:25 1023 30.21 852 25.16 23.8 74.9 30 5.6 42
16:30 1023 30.21 852 25.16 22.8 73.1 31 5 41
16:35 1023 30.21 852 25.16 22.5 72.6 29 4 39.2
16:40 1023 30.21 852 25.16 22.8 73 28 3.6 38.4
16:45 1023 30.21 852 25.16 23.2 73.7 27 3.5 38.3
16:50 1023 30.21 852 25.16 23.6 74.5 27 3.5 38.3
16:55 1023 30.21 852 25.16 24.2 75.5 25 3.3 38
17:00 1023 30.21 852 25.16 24.8 76.6 25 3.9 39
17:05 1023 30.21 852 25.16 24.5 76.1 26 4.1 39.4
17:10 1023 30.21 852 25.16 24.2 75.6 25 2.9 37.3
17:15 1023 30.21 852 25.16 23.7 74.7 26 3.3 37.9
17:20 1023 30.21 852 25.16 23.7 74.7 25 2.5 36.5
17:25 1023 30.21 853 25.19 23.6 74.5 26 3 37.3
17:30 1024 30.24 853 25.19 22.8 73 28 3.4 38.1
17:35 1024 30.24 853 25.19 22.2 71.9 27 2.6 36.6
17:40 1024 30.24 853 25.19 22 71.6 27 2.1 35.9
17:45 1024 30.24 853 25.19 21.9 71.4 27 2.2 36
17:50 1024 30.24 853 25.19 21.9 71.3 28 2.6 36.7
17:55 1024 30.24 853 25.19 21.8 71.2 28 2.9 37.2
18:00 1024 30.24 853 25.19 21.8 71.2 28 2.6 36.7
18:05 1024 30.24 853 25.19 21.9 71.5 27 2.4 36.4
18:10 1024 30.24 853 25.19 22.1 71.8 28 2.8 37.1
18:15 1024 30.24 853 25.19 22.2 72 27 2.4 36.3
18:20 1024 30.24 853 25.19 22 71.7 32 4.9 40.9
18:25 1024 30.24 853 25.19 21.3 70.3 33 4.7 40.4
18:30 1024 30.24 853 25.19 20.6 69.1 36 5.1 41.2
18:35 1024 30.24 853 25.19 20.5 68.9 37 5.4 41.6
18:40 1024 30.24 853 25.19 20.4 68.7 39 6 42.7
18:45 1024 30.24 853 25.19 20.2 68.3 39 5.9 42.7
18:50 1024 30.24 853 25.19 20.1 68.2 44 7.6 45.7
18:55 1024 30.24 853 25.19 20.2 68.3 43 7.4 45.3
19:00 1024 30.24 853 25.19 20.1 68.2 42 7.1 44.8
19:05 1024 30.24 853 25.19 20.1 68.2 41 6.5 43.7
19:10 1024 30.24 853 25.19 20 68 42 6.8 44.3
19:15 1024 30.24 853 25.19 19.8 67.6 43 7.1 44.7
19:20 1024 30.24 853 25.19 19.5 67.2 44 7.1 44.8
19:25 1024 30.24 853 25.19 19.4 66.9 45 7.3 45.1
19:30 1024 30.24 853 25.19 19.3 66.7 45 7.2 45
19:35 1024 30.24 853 25.19 19.1 66.4 45 6.9 44.4
19:40 1024 30.24 853 25.19 19 66.2 44 6.7 44
19:45 1024 30.24 853 25.19 18.8 65.9 43 6.3 43.3
19:50 1024 30.24 853 25.19 18.8 65.8 43 6.2 43.1
19:55 1024 30.24 853 25.19 18.7 65.7 43 6.1 43
20:00 1024 30.24 853 25.19 18.7 65.6 44 6.2 43.2
20:05 1024 30.24 853 25.19 18.6 65.4 44 6.2 43.1
20:10 1024 30.24 853 25.19 18.4 65.2 44 6 42.8
20:15 1024 30.24 853 25.19 18.4 65.2 44 6.1 43
20:20 1024 30.24 853 25.19 18.4 65.1 44 6 42.8
20:25 1024 30.24 854 25.22 18.4 65.2 44 6.1 43
20:30 1024 30.24 854 25.22 18.1 64.7 46 6.5 43.7
20:35 1025 30.27 854 25.22 17.9 64.1 48 6.8 44.3
20:40 1025 30.27 854 25.22 17.6 63.7 50 7.3 45.1
20:45 1025 30.27 854 25.22 17.3 63.1 52 7.4 45.3
20:50 1025 30.27 854 25.22 17.2 63 53 7.7 45.9
20:55 1025 30.27 854 25.22 17.3 63.1 54 8.1 46.5
21:00 1025 30.27 854 25.22 17.3 63.1 55 8.3 47
21:05 1025 30.27 854 25.22 17.3 63.1 55 8.3 46.9
21:10 1025 30.27 854 25.22 17.3 63.1 55 8.3 47
21:15 1025 30.27 854 25.22 17.3 63.1 56 8.5 47.3
21:20 1025 30.27 854 25.22 17.4 63.3 57 9 48.2
21:25 1025 30.27 854 25.22 17.3 63.2 58 9 48.2
21:30 1025 30.27 854 25.22 17.1 62.8 59 9.1 48.4
21:35 1025 30.27 854 25.22 17 62.5 60 9.3 48.7
21:40 1025 30.27 854 25.22 16.8 62.3 60 9.2 48.6
21:45 1025 30.27 854 25.22 16.8 62.3 61 9.3 48.8
21:50 1025 30.27 854 25.22 16.8 62.3 61 9.4 48.8
21:55 1025 30.27 854 25.22 16.9 62.4 61 9.4 48.9
22:00 1025 30.27 854 25.22 16.8 62.3 61 9.2 48.6
22:05 1025 30.27 854 25.22 16.7 62 61 9.2 48.6
22:10 1025 30.27 854 25.22 16.2 61.2 60 8.4 47.2
22:15 1025 30.27 854 25.22 15.9 60.6 58 7.8 46
22:20 1025 30.27 854 25.22 15.8 60.4 58 7.7 45.9
22:25 1025 30.27 854 25.22 15.7 60.2 59 7.7 45.8
22:30 1025 30.27 854 25.22 15.5 60 60 7.8 46
22:35 1025 30.27 854 25.22 15.4 59.8 60 7.7 45.9
22:40 1025 30.27 854 25.22 15.4 59.7 60 7.7 45.9
22:45 1025 30.27 854 25.22 15.4 59.7 60 7.7 45.9
22:50 1025 30.27 855 25.25 15.4 59.8 60 7.8 46.1
22:55 1025 30.27 855 25.25 15.4 59.7 59 7.6 45.7
23:00 1025 30.27 855 25.25 15.5 59.8 59 7.7 45.8
23:05 1025 30.27 855 25.25 15.4 59.7 60 7.6 45.8
23:10 1025 30.27 855 25.25 15.3 59.6 61 7.8 46
23:15 1025 30.27 855 25.25 15.2 59.4 61 7.9 46.3
23:20 1025 30.27 855 25.25 15.1 59.1 63 8.1 46.6
23:25 1025 30.27 855 25.25 15.1 59.1 64 8.4 47.2
23:30 1025 30.27 855 25.25 15 58.9 65 8.5 47.2
23:35 1025 30.27 855 25.25 14.9 58.9 65 8.6 47.4
23:40 1026 30.3 855 25.25 14.9 58.8 66 8.6 47.4
23:45 1026 30.3 855 25.25 14.8 58.6 65 8.5 47.2
23:50 1025 30.27 855 25.25 14.8 58.7 65 8.3 46.9
23:55 1025 30.27 855 25.25 14.8 58.7 65 8.3 47
24:00 1025 30.27 855 25.25 14.8 58.6 66 8.5 47.3